Terminal Aerodrome Forecast
Issued by NWS Bismarck, ND

Home | Current Version | Previous Version | Graphics & Text | Print | Product List | Glossary On
Versions: 1 2 3 4 5 6 7 8 9 10 11 12 13
000
FTUS43 KBIS 050521
TAFISN
TAF
KISN 050521Z 0506/0606 15008KT P6SM SKC
     FM051600 16017G24KT P6SM SCT100
     FM060200 14010KT P6SM FEW040=

USA.gov is the U.S. government's official web portal to all federal, state and local government web resources and services.